sensor_id;sensor_type;location;lat;lon;timestamp;pressure;altitude;pressure_sealevel;temperature
78859;BMP280;68210;52.032;4.634;2023-04-01T00:00:26;98953.56;;;10.56
78859;BMP280;68210;52.032;4.634;2023-04-01T00:02:27;98953.56;;;10.56
78859;BMP280;68210;52.032;4.634;2023-04-01T00:04:27;98951.28;;;10.48
78859;BMP280;68210;52.032;4.634;2023-04-01T00:06:28;98957.84;;;10.47
78859;BMP280;68210;52.032;4.634;2023-04-01T00:08:29;98958.63;;;10.44
78859;BMP280;68210;52.032;4.634;2023-04-01T00:10:29;98963.22;;;10.50
78859;BMP280;68210;52.032;4.634;2023-04-01T00:12:30;98952.44;;;10.43
78859;BMP280;68210;52.032;4.634;2023-04-01T00:14:30;98960.94;;;10.42
78859;BMP280;68210;52.032;4.634;2023-04-01T00:16:31;98960.22;;;10.34
78859;BMP280;68210;52.032;4.634;2023-04-01T00:18:31;98959.41;;;10.34
78859;BMP280;68210;52.032;4.634;2023-04-01T00:20:32;98961.75;;;10.35
78859;BMP280;68210;52.032;4.634;2023-04-01T00:22:32;98952.84;;;10.31
78859;BMP280;68210;52.032;4.634;2023-04-01T00:24:34;98966.38;;;10.38
78859;BMP280;68210;52.032;4.634;2023-04-01T00:26:35;98971.03;;;10.38
78859;BMP280;68210;52.032;4.634;2023-04-01T00:28:36;98962.50;;;10.39
78859;BMP280;68210;52.032;4.634;2023-04-01T00:30:36;98972.56;;;10.35
78859;BMP280;68210;52.032;4.634;2023-04-01T00:32:37;98974.53;;;10.35
78859;BMP280;68210;52.032;4.634;2023-04-01T00:34:38;98973.75;;;10.31
78859;BMP280;68210;52.032;4.634;2023-04-01T00:36:39;98973.72;;;10.38
78859;BMP280;68210;52.032;4.634;2023-04-01T00:38:40;98969.53;;;10.27
78859;BMP280;68210;52.032;4.634;2023-04-01T00:40:44;98981.91;;;10.24
78859;BMP280;68210;52.032;4.634;2023-04-01T00:42:45;98980.72;;;10.29
78859;BMP280;68210;52.032;4.634;2023-04-01T00:44:51;98981.88;;;10.34
78859;BMP280;68210;52.032;4.634;2023-04-01T00:46:52;98979.91;;;10.31
78859;BMP280;68210;52.032;4.634;2023-04-01T00:48:55;98988.44;;;10.40
78859;BMP280;68210;52.032;4.634;2023-04-01T00:51:18;98981.88;;;10.28
78859;BMP280;68210;52.032;4.634;2023-04-01T00:53:20;98985.75;;;10.20
78859;BMP280;68210;52.032;4.634;2023-04-01T00:55:23;98995.03;;;10.22
78859;BMP280;68210;52.032;4.634;2023-04-01T00:57:25;98996.97;;;10.22
78859;BMP280;68210;52.032;4.634;2023-04-01T00:59:31;99001.22;;;10.26
78859;BMP280;68210;52.032;4.634;2023-04-01T01:01:33;98995.78;;;10.26
78859;BMP280;68210;52.032;4.634;2023-04-01T01:03:35;98991.19;;;10.20
78859;BMP280;68210;52.032;4.634;2023-04-01T01:10:22;98997.72;;;10.36
78859;BMP280;68210;52.032;4.634;2023-04-01T01:12:46;99004.31;;;10.35
78859;BMP280;68210;52.032;4.634;2023-04-01T01:17:20;99006.59;;;10.36
78859;BMP280;68210;52.032;4.634;2023-04-01T01:21:50;99010.50;;;10.42
78859;BMP280;68210;52.032;4.634;2023-04-01T01:23:57;99014.75;;;10.23
78859;BMP280;68210;52.032;4.634;2023-04-01T01:30:47;99003.94;;;10.30
78859;BMP280;68210;52.032;4.634;2023-04-01T01:35:24;99019.78;;;10.21
78859;BMP280;68210;52.032;4.634;2023-04-01T01:37:27;99015.94;;;10.18
78859;BMP280;68210;52.032;4.634;2023-04-01T01:39:31;99029.06;;;10.40
78859;BMP280;68210;52.032;4.634;2023-04-01T01:41:35;99015.91;;;10.35
78859;BMP280;68210;52.032;4.634;2023-04-01T01:43:40;99022.50;;;10.21
78859;BMP280;68210;52.032;4.634;2023-04-01T01:45:46;99020.56;;;10.28
78859;BMP280;68210;52.032;4.634;2023-04-01T01:47:49;99021.34;;;10.22
78859;BMP280;68210;52.032;4.634;2023-04-01T01:49:51;99032.94;;;10.29
78859;BMP280;68210;52.032;4.634;2023-04-01T01:51:52;99023.63;;;10.33
78859;BMP280;68210;52.032;4.634;2023-04-01T01:53:53;99032.53;;;10.34
78859;BMP280;68210;52.032;4.634;2023-04-01T01:55:53;99034.47;;;10.33
78859;BMP280;68210;52.032;4.634;2023-04-01T01:57:57;99021.72;;;10.31
78859;BMP280;68210;52.032;4.634;2023-04-01T02:00:07;99040.28;;;10.35
78859;BMP280;68210;52.032;4.634;2023-04-01T02:02:13;99042.22;;;10.25
78859;BMP280;68210;52.032;4.634;2023-04-01T02:04:15;99029.09;;;10.27
78859;BMP280;68210;52.032;4.634;2023-04-01T02:06:18;99042.22;;;10.35
78859;BMP280;68210;52.032;4.634;2023-04-01T02:08:27;99039.88;;;10.33
78859;BMP280;68210;52.032;4.634;2023-04-01T02:10:30;99052.25;;;10.41
78859;BMP280;68210;52.032;4.634;2023-04-01T02:12:33;99046.06;;;10.48
78859;BMP280;68210;52.032;4.634;2023-04-01T02:14:46;99057.69;;;10.48
78859;BMP280;68210;52.032;4.634;2023-04-01T02:17:01;99061.94;;;10.35
78859;BMP280;68210;52.032;4.634;2023-04-01T02:19:04;99060.75;;;10.47
78859;BMP280;68210;52.032;4.634;2023-04-01T02:21:08;99067.00;;;10.37
78859;BMP280;68210;52.032;4.634;2023-04-01T02:23:09;99061.56;;;10.23
78859;BMP280;68210;52.032;4.634;2023-04-01T02:25:13;99076.66;;;10.34
78859;BMP280;68210;52.032;4.634;2023-04-01T02:27:14;99072.00;;;10.25
78859;BMP280;68210;52.032;4.634;2023-04-01T02:29:16;99067.75;;;10.31
78859;BMP280;68210;52.032;4.634;2023-04-01T02:31:18;99069.69;;;10.20
78859;BMP280;68210;52.032;4.634;2023-04-01T02:33:19;99078.22;;;10.32
78859;BMP280;68210;52.032;4.634;2023-04-01T02:35:20;99074.69;;;10.31
78859;BMP280;68210;52.032;4.634;2023-04-01T02:37:21;99083.22;;;10.23
78859;BMP280;68210;52.032;4.634;2023-04-01T02:39:22;99082.47;;;10.30
78859;BMP280;68210;52.032;4.634;2023-04-01T02:41:22;99083.59;;;10.29
78859;BMP280;68210;52.032;4.634;2023-04-01T02:43:23;99087.09;;;10.26
78859;BMP280;68210;52.032;4.634;2023-04-01T02:45:23;99086.72;;;10.37
78859;BMP280;68210;52.032;4.634;2023-04-01T02:47:23;99092.50;;;10.36
78859;BMP280;68210;52.032;4.634;2023-04-01T02:49:26;99096.38;;;10.35
78859;BMP280;68210;52.032;4.634;2023-04-01T02:51:27;99089.81;;;10.43
78859;BMP280;68210;52.032;4.634;2023-04-01T02:53:27;99096.75;;;10.33
78859;BMP280;68210;52.032;4.634;2023-04-01T02:55:27;99092.88;;;10.31
78859;BMP280;68210;52.032;4.634;2023-04-01T02:57:28;99099.47;;;10.44
78859;BMP280;68210;52.032;4.634;2023-04-01T02:59:29;99106.03;;;10.46
78859;BMP280;68210;52.032;4.634;2023-04-01T03:01:29;99104.88;;;10.51
78859;BMP280;68210;52.032;4.634;2023-04-01T03:03:30;99105.63;;;10.55
78859;BMP280;68210;52.032;4.634;2023-04-01T03:05:30;99099.06;;;10.52
78859;BMP280;68210;52.032;4.634;2023-04-01T03:07:31;99109.13;;;10.52
78859;BMP280;68210;52.032;4.634;2023-04-01T03:09:32;99118.03;;;10.52
78859;BMP280;68210;52.032;4.634;2023-04-01T03:11:32;99124.22;;;10.53
78859;BMP280;68210;52.032;4.634;2023-04-01T03:13:33;99128.09;;;10.59
78859;BMP280;68210;52.032;4.634;2023-04-01T03:15:33;99125.75;;;10.61
78859;BMP280;68210;52.032;4.634;2023-04-01T03:17:34;99126.53;;;10.47
78859;BMP280;68210;52.032;4.634;2023-04-01T03:19:34;99132.75;;;10.51
78859;BMP280;68210;52.032;4.634;2023-04-01T03:21:35;99140.47;;;10.60
78859;BMP280;68210;52.032;4.634;2023-04-01T03:23:35;99144.31;;;10.72
78859;BMP280;68210;52.032;4.634;2023-04-01T03:25:35;99136.59;;;10.64
78859;BMP280;68210;52.032;4.634;2023-04-01T03:27:36;99142.00;;;10.57
78859;BMP280;68210;52.032;4.634;2023-04-01T03:29:36;99153.63;;;10.75
78859;BMP280;68210;52.032;4.634;2023-04-01T03:31:37;99153.63;;;10.64
78859;BMP280;68210;52.032;4.634;2023-04-01T03:33:37;99163.69;;;10.67
78859;BMP280;68210;52.032;4.634;2023-04-01T03:35:37;99161.38;;;10.62
78859;BMP280;68210;52.032;4.634;2023-04-01T03:37:38;99169.13;;;10.64
78859;BMP280;68210;52.032;4.634;2023-04-01T03:39:38;99172.56;;;10.71
78859;BMP280;68210;52.032;4.634;2023-04-01T03:41:39;99183.81;;;10.73
78859;BMP280;68210;52.032;4.634;2023-04-01T03:43:39;99174.13;;;10.55
78859;BMP280;68210;52.032;4.634;2023-04-01T03:45:50;99175.69;;;10.63
78859;BMP280;68210;52.032;4.634;2023-04-01T03:47:50;99183.44;;;10.61
78859;BMP280;68210;52.032;4.634;2023-04-01T03:49:51;99189.59;;;10.58
78859;BMP280;68210;52.032;4.634;2023-04-01T03:51:51;99182.28;;;10.59
78859;BMP280;68210;52.032;4.634;2023-04-01T03:53:52;99198.50;;;10.55
78859;BMP280;68210;52.032;4.634;2023-04-01T03:55:53;99192.31;;;10.75
78859;BMP280;68210;52.032;4.634;2023-04-01T03:57:53;99192.69;;;10.74
78859;BMP280;68210;52.032;4.634;2023-04-01T03:59:53;99209.75;;;10.57
78859;BMP280;68210;52.032;4.634;2023-04-01T04:01:54;99202.41;;;10.64
78859;BMP280;68210;52.032;4.634;2023-04-01T04:03:55;99201.59;;;10.61
78859;BMP280;68210;52.032;4.634;2023-04-01T04:05:56;99206.63;;;10.55
78859;BMP280;68210;52.032;4.634;2023-04-01T04:07:56;99216.31;;;10.63
78859;BMP280;68210;52.032;4.634;2023-04-01T04:09:57;99214.00;;;10.65
78859;BMP280;68210;52.032;4.634;2023-04-01T04:11:57;99215.16;;;10.71
78859;BMP280;68210;52.032;4.634;2023-04-01T04:13:57;99231.81;;;10.73
78859;BMP280;68210;52.032;4.634;2023-04-01T04:15:58;99237.59;;;10.71
78859;BMP280;68210;52.032;4.634;2023-04-01T04:17:59;99237.22;;;10.76
78859;BMP280;68210;52.032;4.634;2023-04-01T04:19:59;99240.72;;;10.70
78859;BMP280;68210;52.032;4.634;2023-04-01T04:22:01;99237.22;;;10.66
78859;BMP280;68210;52.032;4.634;2023-04-01T04:24:02;99248.06;;;10.59
78859;BMP280;68210;52.032;4.634;2023-04-01T04:26:08;99243.44;;;10.56
78859;BMP280;68210;52.032;4.634;2023-04-01T04:28:08;99256.59;;;10.61
78859;BMP280;68210;52.032;4.634;2023-04-01T04:30:09;99247.31;;;10.59
78859;BMP280;68210;52.032;4.634;2023-04-01T04:32:09;99252.72;;;10.59
78859;BMP280;68210;52.032;4.634;2023-04-01T04:34:10;99265.88;;;10.53
78859;BMP280;68210;52.032;4.634;2023-04-01T04:36:10;99262.78;;;10.48
78859;BMP280;68210;52.032;4.634;2023-04-01T04:38:11;99265.09;;;10.46
78859;BMP280;68210;52.032;4.634;2023-04-01T04:40:11;99270.88;;;10.44
78859;BMP280;68210;52.032;4.634;2023-04-01T04:42:11;99278.63;;;10.42
78859;BMP280;68210;52.032;4.634;2023-04-01T04:44:12;99288.25;;;10.36
78859;BMP280;68210;52.032;4.634;2023-04-01T04:46:12;99285.19;;;10.41
78859;BMP280;68210;52.032;4.634;2023-04-01T04:48:15;99286.34;;;10.47
78859;BMP280;68210;52.032;4.634;2023-04-01T04:50:18;99278.25;;;10.54
78859;BMP280;68210;52.032;4.634;2023-04-01T04:52:19;99290.22;;;10.43
78859;BMP280;68210;52.032;4.634;2023-04-01T04:54:19;99289.84;;;10.44
78859;BMP280;68210;52.032;4.634;2023-04-01T04:56:21;99293.69;;;10.30
78859;BMP280;68210;52.032;4.634;2023-04-01T04:58:21;99299.06;;;10.26
78859;BMP280;68210;52.032;4.634;2023-04-01T05:00:22;99299.47;;;10.25
78859;BMP280;68210;52.032;4.634;2023-04-01T05:02:23;99304.50;;;10.36
78859;BMP280;68210;52.032;4.634;2023-04-01T05:04:23;99309.09;;;10.15
78859;BMP280;68210;52.032;4.634;2023-04-01T05:06:24;99311.84;;;10.22
78859;BMP280;68210;52.032;4.634;2023-04-01T05:08:25;99316.09;;;10.20
78859;BMP280;68210;52.032;4.634;2023-04-01T05:10:26;99307.19;;;10.16
78859;BMP280;68210;52.032;4.634;2023-04-01T05:12:26;99326.13;;;10.16
78859;BMP280;68210;52.032;4.634;2023-04-01T05:14:27;99325.38;;;10.19
78859;BMP280;68210;52.032;4.634;2023-04-01T05:16:27;99331.22;;;10.34
78859;BMP280;68210;52.032;4.634;2023-04-01T05:18:27;99338.19;;;10.39
78859;BMP280;68210;52.032;4.634;2023-04-01T05:20:28;99332.78;;;10.35
78859;BMP280;68210;52.032;4.634;2023-04-01T05:22:29;99340.09;;;10.31
78859;BMP280;68210;52.032;4.634;2023-04-01T05:24:29;99343.19;;;10.27
78859;BMP280;68210;52.032;4.634;2023-04-01T05:26:30;99349.38;;;10.31
78859;BMP280;68210;52.032;4.634;2023-04-01T05:28:30;99355.22;;;10.39
78859;BMP280;68210;52.032;4.634;2023-04-01T05:30:31;99357.16;;;10.39
78859;BMP280;68210;52.032;4.634;2023-04-01T05:32:31;99357.16;;;10.35
78859;BMP280;68210;52.032;4.634;2023-04-01T05:34:31;99356.78;;;10.40
78859;BMP280;68210;52.032;4.634;2023-04-01T05:36:32;99368.38;;;10.37
78859;BMP280;68210;52.032;4.634;2023-04-01T05:38:33;99374.13;;;10.26
78859;BMP280;68210;52.032;4.634;2023-04-01T05:40:33;99369.13;;;10.31
78859;BMP280;68210;52.032;4.634;2023-04-01T05:42:34;99369.91;;;10.35
78859;BMP280;68210;52.032;4.634;2023-04-01T05:44:36;99386.47;;;10.20
78859;BMP280;68210;52.032;4.634;2023-04-01T05:46:37;99380.34;;;10.30
78859;BMP280;68210;52.032;4.634;2023-04-01T05:48:37;99392.25;;;10.11
78859;BMP280;68210;52.032;4.634;2023-04-01T05:50:40;99391.91;;;10.20
78859;BMP280;68210;52.032;4.634;2023-04-01T05:52:42;99392.72;;;10.24
78859;BMP280;68210;52.032;4.634;2023-04-01T05:54:42;99395.78;;;10.26
78859;BMP280;68210;52.032;4.634;2023-04-01T05:56:42;99393.94;;;10.40
78859;BMP280;68210;52.032;4.634;2023-04-01T05:58:46;99400.47;;;10.35
78859;BMP280;68210;52.032;4.634;2023-04-01T06:00:50;99395.06;;;10.35
78859;BMP280;68210;52.032;4.634;2023-04-01T06:02:50;99410.56;;;10.38
78859;BMP280;68210;52.032;4.634;2023-04-01T06:05:03;99408.97;;;10.34
78859;BMP280;68210;52.032;4.634;2023-04-01T06:07:17;99423.63;;;10.26
78859;BMP280;68210;52.032;4.634;2023-04-01T06:09:29;99419.78;;;10.27
78859;BMP280;68210;52.032;4.634;2023-04-01T06:14:01;99422.03;;;10.08
78859;BMP280;68210;52.032;4.634;2023-04-01T06:27:12;99446.13;;;10.30
78859;BMP280;68210;52.032;4.634;2023-04-01T06:33:55;99466.13;;;10.12
78859;BMP280;68210;52.032;4.634;2023-04-01T06:36:19;99470.28;;;9.99
78859;BMP280;68210;52.032;4.634;2023-04-01T06:44:07;99464.53;;;10.04
78859;BMP280;68210;52.032;4.634;2023-04-01T06:52:55;99488.06;;;9.97
78859;BMP280;68210;52.032;4.634;2023-04-01T06:55:14;99486.16;;;9.97
78859;BMP280;68210;52.032;4.634;2023-04-01T06:57:45;99484.66;;;10.06
78859;BMP280;68210;52.032;4.634;2023-04-01T06:59:47;99493.88;;;9.95
78859;BMP280;68210;52.032;4.634;2023-04-01T07:01:54;99493.88;;;9.95
78859;BMP280;68210;52.032;4.634;2023-04-01T07:03:59;99493.91;;;10.02
78859;BMP280;68210;52.032;4.634;2023-04-01T07:06:05;99502.47;;;10.11
78859;BMP280;68210;52.032;4.634;2023-04-01T07:08:11;99497.13;;;10.21
78859;BMP280;68210;52.032;4.634;2023-04-01T07:10:20;99501.38;;;10.19
78859;BMP280;68210;52.032;4.634;2023-04-01T07:14:36;99513.00;;;10.23
78859;BMP280;68210;52.032;4.634;2023-04-01T07:16:44;99515.28;;;10.17
78859;BMP280;68210;52.032;4.634;2023-04-01T07:18:51;99523.38;;;10.14
78859;BMP280;68210;52.032;4.634;2023-04-01T07:20:53;99537.28;;;10.09
78859;BMP280;68210;52.032;4.634;2023-04-01T07:22:56;99522.88;;;9.98
78859;BMP280;68210;52.032;4.634;2023-04-01T07:25:02;99540.81;;;10.13
78859;BMP280;68210;52.032;4.634;2023-04-01T07:27:11;99529.22;;;10.16
78859;BMP280;68210;52.032;4.634;2023-04-01T07:29:13;99531.94;;;10.19
78859;BMP280;68210;52.032;4.634;2023-04-01T07:35:57;99545.94;;;10.31
78859;BMP280;68210;52.032;4.634;2023-04-01T07:40:34;99558.94;;;10.09
78859;BMP280;68210;52.032;4.634;2023-04-01T07:49:50;99569.34;;;10.07
78859;BMP280;68210;52.032;4.634;2023-04-01T07:54:15;99566.72;;;10.17
78859;BMP280;68210;52.032;4.634;2023-04-01T07:58:41;99576.00;;;10.16
78859;BMP280;68210;52.032;4.634;2023-04-01T08:00:51;99588.38;;;10.17
78859;BMP280;68210;52.032;4.634;2023-04-01T08:03:56;99592.25;;;10.13
78859;BMP280;68210;52.032;4.634;2023-04-01T08:05:41;99590.34;;;10.20
78859;BMP280;68210;52.032;4.634;2023-04-01T08:14:48;99595.69;;;10.10
78859;BMP280;68210;52.032;4.634;2023-04-01T08:17:28;99599.25;;;10.21
78859;BMP280;68210;52.032;4.634;2023-04-01T08:19:45;99600.84;;;10.25
78859;BMP280;68210;52.032;4.634;2023-04-01T08:21:52;99601.72;;;10.39
78859;BMP280;68210;52.032;4.634;2023-04-01T08:24:10;99612.44;;;10.26
78859;BMP280;68210;52.032;4.634;2023-04-01T08:26:41;99619.47;;;10.33
78859;BMP280;68210;52.032;4.634;2023-04-01T08:29:04;99611.84;;;10.49
78859;BMP280;68210;52.032;4.634;2023-04-01T08:31:18;99620.31;;;10.44
78859;BMP280;68210;52.032;4.634;2023-04-01T08:33:27;99621.75;;;10.31
78859;BMP280;68210;52.032;4.634;2023-04-01T08:35:31;99631.13;;;10.41
78859;BMP280;68210;52.032;4.634;2023-04-01T08:37:38;99626.22;;;10.53
78859;BMP280;68210;52.032;4.634;2023-04-01T08:42:31;99638.19;;;10.52
78859;BMP280;68210;52.032;4.634;2023-04-01T08:45:06;99640.19;;;10.59
78859;BMP280;68210;52.032;4.634;2023-04-01T08:49:49;99641.75;;;10.63
78859;BMP280;68210;52.032;4.634;2023-04-01T08:54:06;99649.03;;;10.52
78859;BMP280;68210;52.032;4.634;2023-04-01T09:03:41;99670.03;;;10.65
78859;BMP280;68210;52.032;4.634;2023-04-01T09:19:49;99687.13;;;10.76
78859;BMP280;68210;52.032;4.634;2023-04-01T09:24:23;99677.88;;;10.81
78859;BMP280;68210;52.032;4.634;2023-04-01T09:32:29;99694.81;;;10.64
78859;BMP280;68210;52.032;4.634;2023-04-01T09:37:49;99700.69;;;10.80
78859;BMP280;68210;52.032;4.634;2023-04-01T09:39:45;99694.09;;;10.74
78859;BMP280;68210;52.032;4.634;2023-04-01T09:44:06;99697.31;;;10.93
78859;BMP280;68210;52.032;4.634;2023-04-01T09:46:18;99707.34;;;10.86
78859;BMP280;68210;52.032;4.634;2023-04-01T09:51:53;99712.03;;;10.95
78859;BMP280;68210;52.032;4.634;2023-04-01T09:53:40;99706.50;;;10.75
78859;BMP280;68210;52.032;4.634;2023-04-01T10:02:33;99720.38;;;10.66
78859;BMP280;68210;52.032;4.634;2023-04-01T10:05:04;99723.34;;;10.51
78859;BMP280;68210;52.032;4.634;2023-04-01T10:07:50;99720.31;;;10.63
78859;BMP280;68210;52.032;4.634;2023-04-01T10:27:42;99745.63;;;10.77
78859;BMP280;68210;52.032;4.634;2023-04-01T10:37:11;99762.25;;;10.76
78859;BMP280;68210;52.032;4.634;2023-04-01T10:41:38;99759.28;;;10.91
78859;BMP280;68210;52.032;4.634;2023-04-01T10:46:14;99767.44;;;10.94
78859;BMP280;68210;52.032;4.634;2023-04-01T10:48:36;99759.25;;;10.88
78859;BMP280;68210;52.032;4.634;2023-04-01T11:22:16;99795.47;;;11.12
78859;BMP280;68210;52.032;4.634;2023-04-01T11:24:51;99793.91;;;11.11
78859;BMP280;68210;52.032;4.634;2023-04-01T11:31:39;99806.16;;;11.41
78859;BMP280;68210;52.032;4.634;2023-04-01T11:34:28;99801.78;;;11.26
78859;BMP280;68210;52.032;4.634;2023-04-01T11:36:47;99810.75;;;11.34
78859;BMP280;68210;52.032;4.634;2023-04-01T11:39:17;99809.28;;;11.47
78859;BMP280;68210;52.032;4.634;2023-04-01T11:43:43;99822.50;;;11.48
78859;BMP280;68210;52.032;4.634;2023-04-01T11:46:11;99818.59;;;11.49
78859;BMP280;68210;52.032;4.634;2023-04-01T11:50:33;99825.50;;;11.40
78859;BMP280;68210;52.032;4.634;2023-04-01T12:06:32;99849.94;;;11.40
78859;BMP280;68210;52.032;4.634;2023-04-01T12:15:38;99856.31;;;11.64
78859;BMP280;68210;52.032;4.634;2023-04-01T12:24:45;99865.66;;;11.70
78859;BMP280;68210;52.032;4.634;2023-04-01T12:31:31;99872.44;;;12.04
78859;BMP280;68210;52.032;4.634;2023-04-01T12:36:26;99870.91;;;12.10
78859;BMP280;68210;52.032;4.634;2023-04-01T12:40:48;99888.78;;;12.11
78859;BMP280;68210;52.032;4.634;2023-04-01T12:52:13;99894.19;;;12.11
78859;BMP280;68210;52.032;4.634;2023-04-01T13:19:24;99924.44;;;12.06
78859;BMP280;68210;52.032;4.634;2023-04-01T13:21:39;99931.03;;;11.98
78859;BMP280;68210;52.032;4.634;2023-04-01T13:23:55;99922.03;;;11.87
78859;BMP280;68210;52.032;4.634;2023-04-01T13:28:18;99936.88;;;12.07
78859;BMP280;68210;52.032;4.634;2023-04-01T13:30:43;99938.47;;;12.11
78859;BMP280;68210;52.032;4.634;2023-04-01T13:33:16;99942.31;;;12.10
78859;BMP280;68210;52.032;4.634;2023-04-01T13:35:48;99944.75;;;12.25
78859;BMP280;68210;52.032;4.634;2023-04-01T13:37:57;99941.50;;;12.03
78859;BMP280;68210;52.032;4.634;2023-04-01T13:40:17;99950.41;;;12.00
78859;BMP280;68210;52.032;4.634;2023-04-01T13:42:23;99948.81;;;11.92
78859;BMP280;68210;52.032;4.634;2023-04-01T13:44:36;99947.34;;;12.08
78859;BMP280;68210;52.032;4.634;2023-04-01T13:47:28;99960.03;;;11.87
78859;BMP280;68210;52.032;4.634;2023-04-01T13:54:54;99953.47;;;11.95
78859;BMP280;68210;52.032;4.634;2023-04-01T14:04:47;99976.94;;;12.16
78859;BMP280;68210;52.032;4.634;2023-04-01T14:09:15;99975.69;;;12.07
78859;BMP280;68210;52.032;4.634;2023-04-01T14:28:10;100008.19;;;11.90
78859;BMP280;68210;52.032;4.634;2023-04-01T14:30:20;100006.59;;;11.89
78859;BMP280;68210;52.032;4.634;2023-04-01T14:35:06;100009.78;;;11.98
78859;BMP280;68210;52.032;4.634;2023-04-01T14:39:47;100015.88;;;11.84
78859;BMP280;68210;52.032;4.634;2023-04-01T14:42:18;100019.38;;;11.85
78859;BMP280;68210;52.032;4.634;2023-04-01T14:49:22;100024.06;;;11.91
78859;BMP280;68210;52.032;4.634;2023-04-01T14:51:38;100023.94;;;11.74
78859;BMP280;68210;52.032;4.634;2023-04-01T14:53:44;100034.41;;;11.76
78859;BMP280;68210;52.032;4.634;2023-04-01T14:55:54;100032.13;;;11.81
78859;BMP280;68210;52.032;4.634;2023-04-01T14:58:10;100043.72;;;11.71
78859;BMP280;68210;52.032;4.634;2023-04-01T15:00:15;100049.66;;;11.87
78859;BMP280;68210;52.032;4.634;2023-04-01T15:04:56;100053.06;;;11.77
78859;BMP280;68210;52.032;4.634;2023-04-01T15:09:06;100066.84;;;11.58
78859;BMP280;68210;52.032;4.634;2023-04-01T15:16:01;100080.75;;;11.53
78859;BMP280;68210;52.032;4.634;2023-04-01T15:21:02;100087.78;;;11.58
78859;BMP280;68210;52.032;4.634;2023-04-01T15:27:51;100105.94;;;11.54
78859;BMP280;68210;52.032;4.634;2023-04-01T15:34:58;100116.38;;;11.49
78859;BMP280;68210;52.032;4.634;2023-04-01T15:37:43;100117.53;;;11.48
78859;BMP280;68210;52.032;4.634;2023-04-01T15:39:56;100123.31;;;11.46
78859;BMP280;68210;52.032;4.634;2023-04-01T15:44:55;100131.00;;;11.41
78859;BMP280;68210;52.032;4.634;2023-04-01T15:46:58;100143.31;;;11.35
78859;BMP280;68210;52.032;4.634;2023-04-01T15:49:11;100143.22;;;11.28
78859;BMP280;68210;52.032;4.634;2023-04-01T15:51:18;100154.13;;;11.31
78859;BMP280;68210;52.032;4.634;2023-04-01T15:59:57;100158.78;;;11.31
78859;BMP280;68210;52.032;4.634;2023-04-01T16:04:31;100161.91;;;11.33
78859;BMP280;68210;52.032;4.634;2023-04-01T16:09:07;100181.19;;;11.28
78859;BMP280;68210;52.032;4.634;2023-04-01T16:11:18;100180.50;;;11.31
78859;BMP280;68210;52.032;4.634;2023-04-01T16:16:02;100192.06;;;11.28
78859;BMP280;68210;52.032;4.634;2023-04-01T16:22:05;100200.13;;;11.21
78859;BMP280;68210;52.032;4.634;2023-04-01T16:23:52;100208.81;;;11.04
78859;BMP280;68210;52.032;4.634;2023-04-01T16:26:26;100216.09;;;11.00
78859;BMP280;68210;52.032;4.634;2023-04-01T16:28:42;100223.03;;;10.98
78859;BMP280;68210;52.032;4.634;2023-04-01T16:33:15;100228.00;;;10.92
78859;BMP280;68210;52.032;4.634;2023-04-01T16:43:20;100239.41;;;10.79
78859;BMP280;68210;52.032;4.634;2023-04-01T16:45:30;100251.03;;;10.80
78859;BMP280;68210;52.032;4.634;2023-04-01T16:47:40;100256.13;;;10.85
78859;BMP280;68210;52.032;4.634;2023-04-01T16:49:52;100261.69;;;10.92
78859;BMP280;68210;52.032;4.634;2023-04-01T16:52:12;100258.13;;;10.88
78859;BMP280;68210;52.032;4.634;2023-04-01T16:56:45;100266.22;;;10.84
78859;BMP280;68210;52.032;4.634;2023-04-01T17:03:45;100280.38;;;10.74
78859;BMP280;68210;52.032;4.634;2023-04-01T17:17:17;100311.81;;;10.79
78859;BMP280;68210;52.032;4.634;2023-04-01T17:24:11;100320.25;;;10.74
78859;BMP280;68210;52.032;4.634;2023-04-01T17:26:42;100336.91;;;10.72
78859;BMP280;68210;52.032;4.634;2023-04-01T17:28:53;100337.25;;;10.71
78859;BMP280;68210;52.032;4.634;2023-04-01T17:40:30;100372.22;;;10.57
78859;BMP280;68210;52.032;4.634;2023-04-01T17:43:02;100386.13;;;10.56
78859;BMP280;68210;52.032;4.634;2023-04-01T17:45:33;100391.94;;;10.54
78859;BMP280;68210;52.032;4.634;2023-04-01T17:47:43;100386.78;;;10.49
78859;BMP280;68210;52.032;4.634;2023-04-01T17:53:16;100404.50;;;10.43
78859;BMP280;68210;52.032;4.634;2023-04-01T18:00:02;100419.19;;;10.42
78859;BMP280;68210;52.032;4.634;2023-04-01T18:03:04;100422.47;;;10.32
78859;BMP280;68210;52.032;4.634;2023-04-01T18:18:23;100466.50;;;10.11
78859;BMP280;68210;52.032;4.634;2023-04-01T18:20:31;100487.28;;;10.07
78859;BMP280;68210;52.032;4.634;2023-04-01T18:22:41;100467.31;;;9.96
78859;BMP280;68210;52.032;4.634;2023-04-01T18:24:47;100483.56;;;9.96
78859;BMP280;68210;52.032;4.634;2023-04-01T18:27:01;100481.31;;;9.98
78859;BMP280;68210;52.032;4.634;2023-04-01T18:29:40;100497.53;;;9.98
78859;BMP280;68210;52.032;4.634;2023-04-01T18:31:45;100497.72;;;10.05
78859;BMP280;68210;52.032;4.634;2023-04-01T18:34:02;100509.66;;;10.04
78859;BMP280;68210;52.032;4.634;2023-04-01T18:38:40;100519.03;;;9.91
78859;BMP280;68210;52.032;4.634;2023-04-01T18:41:07;100535.72;;;9.93
78859;BMP280;68210;52.032;4.634;2023-04-01T18:43:21;100527.75;;;9.85
78859;BMP280;68210;52.032;4.634;2023-04-01T18:45:32;100539.13;;;9.90
78859;BMP280;68210;52.032;4.634;2023-04-01T18:47:47;100553.34;;;9.87
78859;BMP280;68210;52.032;4.634;2023-04-01T18:49:59;100545.22;;;9.87
78859;BMP280;68210;52.032;4.634;2023-04-01T18:52:13;100550.56;;;9.84
78859;BMP280;68210;52.032;4.634;2023-04-01T18:57:20;100561.38;;;9.84
78859;BMP280;68210;52.032;4.634;2023-04-01T19:05:52;100586.00;;;9.79
78859;BMP280;68210;52.032;4.634;2023-04-01T19:07:55;100601.22;;;9.83
78859;BMP280;68210;52.032;4.634;2023-04-01T19:10:00;100596.47;;;9.80
78859;BMP280;68210;52.032;4.634;2023-04-01T19:12:23;100600.59;;;9.74
78859;BMP280;68210;52.032;4.634;2023-04-01T19:25:38;100623.09;;;9.63
78859;BMP280;68210;52.032;4.634;2023-04-01T19:27:49;100629.75;;;9.66
78859;BMP280;68210;52.032;4.634;2023-04-01T19:41:38;100653.22;;;9.62
78859;BMP280;68210;52.032;4.634;2023-04-01T19:51:27;100674.69;;;9.55
78859;BMP280;68210;52.032;4.634;2023-04-01T19:53:59;100671.97;;;9.55
78859;BMP280;68210;52.032;4.634;2023-04-01T19:56:17;100687.44;;;9.54